Time;durP1;ratioP1;P1;durP2;ratioP2;P2;SDS_P1;SDS_P2;PMS_P1;PMS_P2;Temp;Humidity;BMP_temperature;BMP_pressure;BME280_temperature;BME280_humidity;BME280_pressure;Samples;Min_cycle;Max_cycle;Signal;HPM_P1;HPM_P2
2023/04/22 00:02:13;;;;;;;9.80;7.30;;;;;;;11.82;60.70;100392.20;109242;1253;72138;-70
2023/04/22 00:04:46;;;;;;;8.20;6.80;;;;;;;11.78;60.88;100392.96;109313;1253;59857;-70
2023/04/22 00:07:14;;;;;;;9.40;7.00;;;;;;;11.76;60.89;100391.14;109215;1253;60415;-70
2023/04/22 00:09:41;;;;;;;9.80;7.50;;;;;;;11.74;61.25;100387.02;109059;1253;74109;-70
2023/04/22 00:12:10;;;;;;;9.70;7.30;;;;;;;11.72;61.25;100387.25;109387;1253;70907;-70
2023/04/22 00:14:37;;;;;;;10.40;7.20;;;;;;;11.70;61.41;100381.83;109061;1253;72579;-70
2023/04/22 00:17:05;;;;;;;8.80;6.90;;;;;;;11.67;61.80;100378.41;109281;1252;60514;-70
2023/04/22 00:19:33;;;;;;;8.70;7.00;;;;;;;11.62;61.96;100375.10;109225;1252;60189;-69
2023/04/22 00:22:00;;;;;;;10.10;7.10;;;;;;;11.59;62.21;100371.96;109292;1252;74610;-70
2023/04/22 00:24:27;;;;;;;10.90;7.20;;;;;;;11.57;62.09;100367.61;109248;1253;70240;-70
2023/04/22 00:26:53;;;;;;;10.10;7.10;;;;;;;11.55;62.38;100361.66;109111;1253;72687;-70
2023/04/22 00:29:20;;;;;;;10.70;7.40;;;;;;;11.52;62.61;100361.93;109219;1253;59618;-70
2023/04/22 00:31:47;;;;;;;11.00;7.20;;;;;;;11.52;62.44;100361.55;109341;1253;59078;-70
2023/04/22 00:34:16;;;;;;;10.40;7.50;;;;;;;11.52;62.23;100359.93;109409;1252;74732;-70
2023/04/22 00:36:43;;;;;;;9.20;7.20;;;;;;;11.50;62.34;100352.39;109060;1252;69345;-70
2023/04/22 00:39:11;;;;;;;8.80;6.80;;;;;;;11.49;62.69;100351.30;109223;1252;70943;-70
2023/04/22 00:41:38;;;;;;;9.70;7.40;;;;;;;11.47;62.40;100350.23;109158;1253;60055;-70
2023/04/22 00:44:09;;;;;;;11.70;8.10;;;;;;;11.48;62.58;100352.15;109144;1252;59483;-70
2023/04/22 00:46:38;;;;;;;10.30;7.50;;;;;;;11.47;62.53;100353.45;109284;1252;73969;-70
2023/04/22 00:49:06;;;;;;;9.60;7.30;;;;;;;11.46;62.74;100355.89;109414;1253;71215;-70
2023/04/22 00:51:33;;;;;;;9.10;7.20;;;;;;;11.44;62.71;100352.44;109365;1252;72720;-70
2023/04/22 00:54:03;;;;;;;10.40;7.80;;;;;;;11.42;62.79;100350.38;109190;1254;60646;-70
2023/04/22 00:56:32;;;;;;;10.50;7.50;;;;;;;11.40;62.93;100348.84;109306;1252;60036;-71
2023/04/22 00:58:59;;;;;;;10.20;7.50;;;;;;;11.36;63.13;100339.59;109351;1253;74124;-70
2023/04/22 01:01:26;;;;;;;9.30;7.30;;;;;;;11.32;63.18;100337.73;109204;1252;69852;-70
2023/04/22 01:03:53;;;;;;;10.60;7.20;;;;;;;11.28;63.50;100335.73;109287;1253;71300;-70
2023/04/22 01:06:22;;;;;;;11.60;7.20;;;;;;;11.24;63.63;100335.73;109351;1253;60345;-70
2023/04/22 01:08:50;;;;;;;11.00;8.10;;;;;;;11.21;63.93;100337.83;109241;1253;60399;-70
2023/04/22 01:11:16;;;;;;;11.20;7.70;;;;;;;11.19;63.75;100336.26;109137;1254;75901;-70
2023/04/22 01:13:43;;;;;;;9.90;7.60;;;;;;;11.16;64.03;100338.34;109325;1253;70561;-70
2023/04/22 01:16:10;;;;;;;8.90;7.80;;;;;;;11.12;64.42;100342.30;109304;1253;70542;-70
2023/04/22 01:18:37;;;;;;;10.60;7.60;;;;;;;11.10;64.38;100339.82;109342;1253;61867;-70
2023/04/22 01:21:05;;;;;;;9.90;7.90;;;;;;;11.07;64.87;100342.77;109326;1252;59895;-70
2023/04/22 01:23:32;;;;;;;12.10;8.00;;;;;;;11.03;64.75;100343.63;109230;1253;74682;-70
2023/04/22 01:25:59;;;;;;;10.10;7.70;;;;;;;10.99;65.18;100340.35;109276;1253;70980;-70
2023/04/22 01:28:26;;;;;;;10.50;8.10;;;;;;;10.95;65.47;100343.14;109182;1252;71221;-70
2023/04/22 01:30:54;;;;;;;11.90;8.90;;;;;;;10.90;65.76;100348.14;109209;1253;60828;-70
2023/04/22 01:33:21;;;;;;;11.10;7.80;;;;;;;10.86;66.02;100350.27;109346;1253;59846;-70
2023/04/22 01:35:48;;;;;;;9.90;7.90;;;;;;;10.81;66.15;100350.70;109315;1252;74844;-70
2023/04/22 01:38:14;;;;;;;11.50;8.00;;;;;;;10.76;66.34;100352.65;109228;1254;69488;-70
2023/04/22 01:40:41;;;;;;;10.10;8.10;;;;;;;10.73;66.58;100347.27;109303;1252;71383;-70
2023/04/22 01:43:08;;;;;;;11.40;8.90;;;;;;;10.70;66.80;100344.44;109310;1254;61174;-70
2023/04/22 01:45:34;;;;;;;9.40;8.20;;;;;;;10.65;67.15;100345.67;109384;1253;59060;-70
2023/04/22 01:48:01;;;;;;;13.10;8.80;;;;;;;10.61;67.26;100351.50;109278;1252;73417;-70
2023/04/22 01:50:28;;;;;;;9.30;7.90;;;;;;;10.56;67.39;100352.58;109228;1253;69660;-70
2023/04/22 01:52:55;;;;;;;11.90;8.40;;;;;;;10.52;67.53;100348.52;109261;1252;72478;-70
2023/04/22 01:55:22;;;;;;;10.00;8.40;;;;;;;10.47;67.82;100345.98;109288;1256;61024;-70
2023/04/22 01:57:48;;;;;;;10.20;8.70;;;;;;;10.42;68.00;100345.98;109393;1253;59023;-70
2023/04/22 02:00:15;;;;;;;11.80;8.90;;;;;;;10.37;68.20;100347.95;109078;1253;72282;-70
2023/04/22 02:02:42;;;;;;;10.20;8.60;;;;;;;10.33;68.14;100346.67;109237;1252;70041;-70
2023/04/22 02:05:09;;;;;;;12.40;8.70;;;;;;;10.29;68.61;100347.00;109243;1254;71529;-70
2023/04/22 02:07:36;;;;;;;11.70;9.00;;;;;;;10.25;68.55;100351.86;109344;1254;60781;-70
2023/04/22 02:10:05;;;;;;;12.80;9.40;;;;;;;10.21;68.91;100351.77;109287;1253;60070;-70
2023/04/22 02:12:31;;;;;;;11.20;9.30;;;;;;;10.18;68.74;100349.93;109345;1254;74780;-70
2023/04/22 02:14:58;;;;;;;13.80;9.10;;;;;;;10.16;68.85;100352.59;109146;1253;72288;-70
2023/04/22 02:17:26;;;;;;;12.40;9.40;;;;;;;10.13;69.21;100344.80;109314;1253;72220;-70
2023/04/22 02:19:52;;;;;;;11.20;9.10;;;;;;;10.10;69.23;100344.05;109044;1253;60892;-70
2023/04/22 02:22:20;;;;;;;11.90;9.20;;;;;;;10.08;69.60;100341.64;109411;1253;60144;-70
2023/04/22 02:24:47;;;;;;;12.40;9.30;;;;;;;10.05;69.89;100338.85;109425;1252;73391;-70
2023/04/22 02:27:14;;;;;;;10.90;9.00;;;;;;;10.00;70.05;100336.94;109396;1252;70881;-70
2023/04/22 02:29:41;;;;;;;11.70;9.40;;;;;;;9.97;70.55;100337.45;109376;1253;71479;-70
2023/04/22 02:32:08;;;;;;;12.60;9.40;;;;;;;9.93;70.72;100334.34;109377;1253;59034;-70
2023/04/22 02:34:35;;;;;;;11.40;8.90;;;;;;;9.90;70.87;100335.09;109180;1253;316843;-70
2023/04/22 02:37:01;;;;;;;10.60;8.90;;;;;;;9.87;71.04;100334.20;109369;1254;74788;-70
2023/04/22 02:39:28;;;;;;;11.90;9.40;;;;;;;9.85;71.06;100329.88;109434;1253;70114;-70
2023/04/22 02:41:55;;;;;;;13.10;9.00;;;;;;;9.83;71.05;100325.69;109396;1253;71428;-70
2023/04/22 02:44:22;;;;;;;11.20;9.30;;;;;;;9.80;71.16;100320.52;109358;1253;59678;-70
2023/04/22 02:46:48;;;;;;;12.20;9.20;;;;;;;9.76;71.22;100317.96;109272;1253;59808;-70
2023/04/22 02:49:15;;;;;;;11.40;9.60;;;;;;;9.71;71.57;100317.11;109412;1253;74434;-70
2023/04/22 02:51:42;;;;;;;11.90;9.20;;;;;;;9.68;71.97;100315.59;109258;1252;69952;-70
2023/04/22 02:54:09;;;;;;;12.70;9.60;;;;;;;9.64;71.87;100316.05;109415;1256;73137;-70
2023/04/22 02:56:36;;;;;;;12.10;9.60;;;;;;;9.61;72.02;100320.08;109266;1254;61388;-70
2023/04/22 02:59:02;;;;;;;12.90;9.60;;;;;;;9.58;72.18;100321.98;109424;1252;59237;-70
2023/04/22 03:01:29;;;;;;;12.10;9.20;;;;;;;9.56;71.99;100323.13;109458;1253;75986;-70
2023/04/22 03:03:56;;;;;;;11.90;9.80;;;;;;;9.54;72.08;100324.73;109141;1253;71927;-70
2023/04/22 03:06:23;;;;;;;13.60;10.10;;;;;;;9.52;72.23;100320.27;109386;1252;71266;-70
2023/04/22 03:08:50;;;;;;;11.60;9.40;;;;;;;9.49;72.39;100315.95;109373;1253;61162;-70
2023/04/22 03:11:17;;;;;;;12.80;9.30;;;;;;;9.46;72.40;100313.01;109149;1254;60080;-69
2023/04/22 03:13:43;;;;;;;12.90;9.70;;;;;;;9.43;72.76;100319.79;109382;1252;73491;-70
2023/04/22 03:16:10;;;;;;;13.00;9.80;;;;;;;9.38;72.90;100312.66;109418;1253;70080;-70
2023/04/22 03:18:37;;;;;;;12.30;10.20;;;;;;;9.35;73.00;100314.36;109362;1253;71323;-70
2023/04/22 03:21:04;;;;;;;12.30;10.30;;;;;;;9.32;72.94;100314.60;109228;1254;60801;-70
2023/04/22 03:23:31;;;;;;;13.70;9.90;;;;;;;9.30;72.97;100318.75;109254;1253;58990;-70
2023/04/22 03:25:58;;;;;;;14.00;10.30;;;;;;;9.28;73.07;100321.60;109410;1253;73909;-70
2023/04/22 03:28:25;;;;;;;12.50;10.30;;;;;;;9.26;72.62;100312.31;109445;1253;69485;-70
2023/04/22 03:30:52;;;;;;;12.60;10.20;;;;;;;9.24;72.90;100311.11;109357;1254;72535;-71
2023/04/22 03:33:19;;;;;;;14.60;10.60;;;;;;;9.21;72.95;100307.95;109275;1253;60584;-70
2023/04/22 03:35:49;;;;;;;13.50;10.70;;;;;;;9.16;72.90;100308.42;109445;1256;58589;-70
2023/04/22 03:38:16;;;;;;;13.40;10.80;;;;;;;9.15;72.93;100307.39;109302;1253;73421;-70
2023/04/22 03:40:42;;;;;;;13.60;10.40;;;;;;;9.12;72.93;100307.22;109396;1252;68677;-70
2023/04/22 03:43:09;;;;;;;14.30;10.70;;;;;;;9.06;73.21;100306.52;109349;1252;70398;-70
2023/04/22 03:45:36;;;;;;;13.00;10.40;;;;;;;9.00;73.57;100308.17;109297;1254;59807;-70
2023/04/22 03:48:03;;;;;;;14.70;10.70;;;;;;;8.94;73.84;100303.88;109142;1254;60334;-70
2023/04/22 03:50:30;;;;;;;12.90;10.60;;;;;;;8.89;73.96;100301.46;109292;1254;73156;-70
2023/04/22 03:52:56;;;;;;;12.80;10.80;;;;;;;8.85;73.97;100298.56;109372;1253;72010;-70
2023/04/22 03:55:23;;;;;;;12.90;11.10;;;;;;;8.81;74.00;100303.13;109229;1253;72642;-70
2023/04/22 03:57:50;;;;;;;12.10;10.80;;;;;;;8.77;74.14;100307.39;109268;1254;59195;-69
2023/04/22 04:00:16;;;;;;;12.80;10.90;;;;;;;8.74;74.25;100306.36;109440;1254;60157;-69
2023/04/22 04:02:43;;;;;;;15.60;11.00;;;;;;;8.70;74.31;100305.75;109379;1252;73729;-69
2023/04/22 04:05:10;;;;;;;14.30;11.20;;;;;;;8.67;74.71;100304.35;109259;1254;70150;-69
2023/04/22 04:07:38;;;;;;;15.80;11.30;;;;;;;8.64;74.56;100298.50;109226;1254;71276;-69
2023/04/22 04:10:05;;;;;;;14.00;10.80;;;;;;;8.62;74.90;100302.27;109401;1253;60880;-69
2023/04/22 04:12:32;;;;;;;13.50;11.00;;;;;;;8.60;75.11;100302.85;109231;1254;59279;-69
2023/04/22 04:14:58;;;;;;;14.60;11.30;;;;;;;8.57;75.09;100301.51;109376;1254;73194;-69
2023/04/22 04:17:25;;;;;;;13.70;11.30;;;;;;;8.53;75.40;100304.92;109411;1253;70874;-69
2023/04/22 04:19:52;;;;;;;12.40;11.10;;;;;;;8.49;75.72;100303.78;109315;1253;71390;-69
2023/04/22 04:22:19;;;;;;;13.60;10.70;;;;;;;8.44;75.87;100303.52;109177;1253;60626;-70
2023/04/22 04:24:46;;;;;;;14.10;11.40;;;;;;;8.41;75.96;100304.92;109319;1252;59072;-70
2023/04/22 04:27:13;;;;;;;13.80;10.50;;;;;;;8.39;76.45;100307.27;109247;1252;75207;-70
2023/04/22 04:29:40;;;;;;;14.80;11.80;;;;;;;8.37;77.37;100304.66;109457;1253;70110;-70
2023/04/22 04:32:08;;;;;;;13.40;11.10;;;;;;;8.35;77.36;100299.38;109313;1253;71506;-69
2023/04/22 04:34:38;;;;;;;12.30;11.00;;;;;;;8.36;77.65;100298.14;109159;1252;61365;-69
2023/04/22 04:37:05;;;;;;;13.10;11.30;;;;;;;8.41;77.72;100294.55;109405;1252;59059;-69
2023/04/22 04:39:32;;;;;;;14.20;11.60;;;;;;;8.46;77.38;100299.44;109301;1254;73465;-69
2023/04/22 04:41:59;;;;;;;15.50;11.90;;;;;;;8.52;77.51;100302.05;109383;1253;69783;-69
2023/04/22 04:44:26;;;;;;;15.20;11.80;;;;;;;8.58;77.57;100294.89;109433;1253;72424;-69
2023/04/22 04:46:53;;;;;;;15.30;11.50;;;;;;;8.63;77.67;100298.96;109218;1253;59981;-69
2023/04/22 04:49:20;;;;;;;13.70;11.50;;;;;;;8.68;77.85;100300.37;109195;1253;60058;-69
2023/04/22 04:51:48;;;;;;;17.00;12.40;;;;;;;8.73;77.56;100297.30;109239;1254;75233;-70
2023/04/22 04:54:15;;;;;;;15.30;11.20;;;;;;;8.80;77.69;100300.02;109340;1254;70078;-69
2023/04/22 04:56:42;;;;;;;14.50;11.90;;;;;;;8.87;77.82;100301.67;109076;1254;71178;-69
2023/04/22 04:59:09;;;;;;;14.40;11.30;;;;;;;8.95;77.74;100296.75;109431;1253;59643;-69
2023/04/22 05:01:36;;;;;;;15.20;11.90;;;;;;;9.04;77.78;100296.69;109385;1253;60415;-70
2023/04/22 05:04:02;;;;;;;14.20;11.60;;;;;;;9.11;77.59;100296.55;109433;1253;74972;-69
2023/04/22 05:06:31;;;;;;;13.60;11.60;;;;;;;9.20;77.72;100297.44;109480;1254;68738;-69
2023/04/22 05:08:58;;;;;;;17.10;11.50;;;;;;;9.29;77.72;100296.98;109278;1253;73097;-69
2023/04/22 05:11:25;;;;;;;13.30;10.60;;;;;;;9.37;77.77;100294.23;109216;1254;59668;-69
2023/04/22 05:13:52;;;;;;;14.80;11.50;;;;;;;9.47;77.55;100296.65;109350;1253;60117;-69
2023/04/22 05:16:19;;;;;;;15.40;11.70;;;;;;;9.58;77.32;100292.52;109403;1252;74689;-69
2023/04/22 05:18:46;;;;;;;15.20;11.70;;;;;;;9.71;77.04;100288.90;109321;1254;70160;-70
2023/04/22 05:21:12;;;;;;;14.50;10.70;;;;;;;9.85;76.67;100290.34;109403;1253;71104;-69
2023/04/22 05:23:39;;;;;;;15.30;10.80;;;;;;;9.99;76.57;100285.27;109433;1254;60410;-69
2023/04/22 05:26:05;;;;;;;15.10;10.90;;;;;;;10.13;76.36;100284.12;109427;1253;59103;-69
2023/04/22 05:28:32;;;;;;;13.80;10.30;;;;;;;10.30;76.02;100283.22;109334;1253;72739;-69
2023/04/22 05:30:59;;;;;;;16.00;11.00;;;;;;;10.48;75.79;100283.57;109483;1253;71046;-69
2023/04/22 05:33:25;;;;;;;13.20;10.20;;;;;;;10.64;75.41;100286.95;109370;1253;71385;-69
2023/04/22 05:35:52;;;;;;;14.40;9.90;;;;;;;10.77;75.30;100284.09;109200;1253;60475;-69
2023/04/22 05:38:19;;;;;;;12.40;9.60;;;;;;;10.91;74.90;100287.59;109434;1253;59274;-69
2023/04/22 05:40:46;;;;;;;12.90;9.10;;;;;;;11.04;74.20;100287.61;109297;1253;74879;-69
2023/04/22 05:43:13;;;;;;;11.70;9.20;;;;;;;11.14;73.28;100291.27;109123;1254;69082;-69
2023/04/22 05:45:39;;;;;;;12.50;9.20;;;;;;;11.25;72.62;100293.54;109220;1258;70929;-69
2023/04/22 05:48:06;;;;;;;11.80;8.80;;;;;;;11.34;71.87;100293.39;109410;1253;62277;-69
2023/04/22 05:50:33;;;;;;;12.70;9.10;;;;;;;11.47;71.78;100295.96;109415;1252;59126;-70
2023/04/22 05:52:59;;;;;;;13.10;9.00;;;;;;;11.59;71.40;100297.95;109498;1254;74173;-69
2023/04/22 05:55:26;;;;;;;13.20;9.00;;;;;;;11.70;70.89;100296.64;109346;1254;59073;-69
2023/04/22 05:57:53;;;;;;;10.30;8.70;;;;;;;11.79;70.72;100298.06;109415;1253;71447;-69
2023/04/22 06:00:19;;;;;;;11.60;8.70;;;;;;;11.91;70.69;100290.65;109263;1254;60892;-69
2023/04/22 06:02:46;;;;;;;12.90;8.20;;;;;;;12.03;70.46;100288.54;109485;1254;58981;-69
2023/04/22 06:05:12;;;;;;;11.60;8.60;;;;;;;12.14;70.02;100283.78;109463;1255;74382;-69
2023/04/22 06:07:39;;;;;;;10.50;8.20;;;;;;;12.27;69.69;100284.72;109406;1253;71189;-69
2023/04/22 06:10:07;;;;;;;10.50;7.70;;;;;;;12.39;69.35;100282.73;109444;1253;72804;-70
2023/04/22 06:12:34;;;;;;;9.40;7.60;;;;;;;12.45;68.47;100284.61;109465;1253;59656;-70
2023/04/22 06:15:00;;;;;;;9.90;6.80;;;;;;;12.50;67.77;100283.73;109410;1254;59525;-70
2023/04/22 06:17:27;;;;;;;10.50;7.00;;;;;;;12.52;67.48;100282.83;109219;1254;73985;-70
2023/04/22 06:19:54;;;;;;;8.50;6.90;;;;;;;12.63;67.67;100283.79;109200;1253;59087;-73
2023/04/22 06:22:21;;;;;;;10.60;7.40;;;;;;;12.75;67.40;100283.25;109082;1254;72400;-73
2023/04/22 06:24:47;;;;;;;10.30;7.30;;;;;;;12.87;67.00;100284.86;109100;1254;62017;-74
2023/04/22 06:27:15;;;;;;;11.80;7.30;;;;;;;13.00;67.01;100288.58;109084;1253;59675;-74
2023/04/22 06:29:41;;;;;;;11.80;7.90;;;;;;;13.11;66.72;100289.63;109396;1253;73450;-74
2023/04/22 06:32:08;;;;;;;11.00;8.20;;;;;;;13.23;66.57;100291.59;109417;1253;70288;-74
2023/04/22 06:34:35;;;;;;;12.80;7.90;;;;;;;13.33;66.26;100292.29;109407;1254;71572;-73
2023/04/22 06:37:01;;;;;;;12.00;7.90;;;;;;;13.50;66.00;100296.37;109484;1253;60445;-72
2023/04/22 06:39:28;;;;;;;13.20;7.70;;;;;;;13.63;65.20;100293.63;109248;1254;59490;-72
2023/04/22 06:41:55;;;;;;;11.10;7.80;;;;;;;13.74;64.65;100293.59;109195;1254;72689;-72
2023/04/22 06:44:24;;;;;;;12.20;7.60;;;;;;;13.91;64.99;100288.23;109277;1254;71180;-73
2023/04/22 06:46:51;;;;;;;10.90;7.40;;;;;;;14.10;64.53;100286.45;109348;1253;70629;-72
2023/04/22 06:49:17;;;;;;;13.80;8.30;;;;;;;14.28;64.51;100284.48;109294;1254;60407;-73
2023/04/22 06:51:44;;;;;;;11.10;7.90;;;;;;;14.50;64.33;100280.77;109266;1253;60035;-72
2023/04/22 06:54:11;;;;;;;14.50;8.50;;;;;;;14.71;63.94;100276.84;109500;1254;73509;-73
2023/04/22 06:56:37;;;;;;;14.10;8.00;;;;;;;14.90;63.62;100278.19;109480;1254;70114;-73
2023/04/22 06:59:06;;;;;;;13.70;8.10;;;;;;;15.13;63.33;100272.21;109208;1254;72698;-73
2023/04/22 07:01:34;;;;;;;14.20;7.30;;;;;;;15.36;62.77;100271.83;109352;1253;60723;-73
2023/04/22 07:04:01;;;;;;;12.40;7.50;;;;;;;15.52;62.35;100268.45;109086;1254;60090;-73
2023/04/22 07:06:28;;;;;;;11.30;7.30;;;;;;;15.66;62.24;100263.90;109265;1254;73277;-73
2023/04/22 07:08:55;;;;;;;12.90;7.50;;;;;;;15.85;61.70;100263.52;109106;1254;71014;-72
2023/04/22 07:11:22;;;;;;;9.40;6.80;;;;;;;15.99;60.53;100256.73;109063;1253;72461;-72
2023/04/22 07:13:49;;;;;;;10.10;7.10;;;;;;;16.06;60.00;100253.02;109263;1253;59276;-72
2023/04/22 07:16:16;;;;;;;10.30;6.70;;;;;;;16.15;60.03;100251.95;109391;1254;59018;-72
2023/04/22 07:18:43;;;;;;;9.50;6.30;;;;;;;16.21;59.71;100257.26;109324;1254;74698;-72
2023/04/22 07:21:09;;;;;;;11.40;6.80;;;;;;;16.27;59.57;100256.33;109253;1254;70527;-72
2023/04/22 07:23:36;;;;;;;10.10;6.30;;;;;;;16.41;60.10;100252.75;109256;1253;72513;-72
2023/04/22 07:26:03;;;;;;;8.10;5.40;;;;;;;16.60;59.86;100251.04;109199;1255;60142;-72
2023/04/22 07:28:30;;;;;;;9.00;5.20;;;;;;;16.70;58.22;100256.06;108880;1254;58994;-72
2023/04/22 07:30:56;;;;;;;7.60;5.40;;;;;;;16.86;58.27;100257.89;109116;1252;74489;-72
2023/04/22 07:33:23;;;;;;;6.90;4.90;;;;;;;17.07;57.87;100257.77;109436;1253;70136;-72
2023/04/22 07:35:50;;;;;;;10.00;5.10;;;;;;;17.19;56.51;100255.40;109443;1253;71178;-72
2023/04/22 07:38:17;;;;;;;6.50;4.70;;;;;;;17.28;56.44;100246.04;109324;1253;59460;-72
2023/04/22 07:40:44;;;;;;;7.30;4.90;;;;;;;17.40;56.58;100250.35;109222;1254;59418;-72
2023/04/22 07:43:11;;;;;;;7.50;4.90;;;;;;;17.52;56.46;100248.66;109241;1252;72410;-72
2023/04/22 07:45:37;;;;;;;6.00;4.50;;;;;;;17.64;56.45;100247.55;109452;1254;71177;-72
2023/04/22 07:48:04;;;;;;;6.60;4.50;;;;;;;17.75;55.95;100243.70;109199;1253;71380;-72
2023/04/22 07:50:31;;;;;;;7.40;5.00;;;;;;;17.86;55.96;100244.15;109449;1254;59172;-72
2023/04/22 07:52:58;;;;;;;9.80;5.30;;;;;;;18.03;56.28;100240.48;109226;1252;60026;-72
2023/04/22 07:55:24;;;;;;;6.70;4.40;;;;;;;18.16;56.53;100243.42;109425;1254;73447;-72
2023/04/22 07:57:51;;;;;;;7.00;4.20;;;;;;;18.19;55.58;100246.05;109271;1254;70857;-73
2023/04/22 08:00:18;;;;;;;8.10;4.80;;;;;;;18.25;55.95;100242.25;109260;1254;70413;-72
2023/04/22 08:02:46;;;;;;;8.00;5.10;;;;;;;18.34;56.46;100242.02;109115;1253;60258;-72
2023/04/22 08:05:13;;;;;;;7.50;4.80;;;;;;;18.47;56.27;100245.23;109428;1253;60191;-73
2023/04/22 08:07:40;;;;;;;7.30;4.50;;;;;;;18.60;56.28;100241.94;109171;1254;73800;-72
2023/04/22 08:10:07;;;;;;;10.60;6.50;;;;;;;18.73;56.41;100236.98;109244;1254;71514;-73
2023/04/22 08:12:34;;;;;;;7.50;3.40;;;;;;;18.94;56.00;100236.27;109254;1254;72412;-73
2023/04/22 08:15:01;;;;;;;5.50;3.10;;;;;;;19.10;52.87;100235.30;109248;1252;59628;-72
2023/04/22 08:17:28;;;;;;;5.90;2.90;;;;;;;19.25;52.05;100230.48;109228;1254;58718;-73
2023/04/22 08:19:55;;;;;;;6.40;3.20;;;;;;;19.31;50.62;100232.17;109175;1255;74738;-74
2023/04/22 08:22:22;;;;;;;5.60;2.80;;;;;;;19.44;50.48;100231.72;109361;1254;69967;-73
2023/04/22 08:24:49;;;;;;;6.40;3.00;;;;;;;19.56;49.85;100227.55;109467;1254;72500;-73
2023/04/22 08:27:18;;;;;;;4.60;2.60;;;;;;;19.66;49.17;100232.17;109419;1256;58974;-73
2023/04/22 08:29:44;;;;;;;5.90;3.10;;;;;;;19.75;48.91;100231.09;109296;1254;60035;-73
2023/04/22 08:32:11;;;;;;;5.80;3.10;;;;;;;19.82;48.88;100231.77;109323;1254;73131;-73
2023/04/22 08:34:38;;;;;;;5.70;3.00;;;;;;;19.79;48.63;100227.59;109404;1254;69704;-73
2023/04/22 08:37:05;;;;;;;4.80;3.00;;;;;;;19.84;48.58;100232.02;109429;1255;72825;-73
2023/04/22 08:39:31;;;;;;;5.20;2.50;;;;;;;19.87;47.90;100227.93;109130;1254;59212;-73
2023/04/22 08:41:59;;;;;;;3.40;2.50;;;;;;;19.87;47.11;100229.59;109138;1254;60074;-73
2023/04/22 08:44:26;;;;;;;5.80;2.60;;;;;;;19.92;47.29;100222.17;109155;1253;73289;-73
2023/04/22 08:46:54;;;;;;;4.30;2.50;;;;;;;19.96;47.03;100216.09;109198;1253;69645;-73
2023/04/22 08:49:22;;;;;;;5.10;2.40;;;;;;;20.03;46.83;100214.89;109256;1254;71427;-73
2023/04/22 08:51:49;;;;;;;4.20;2.40;;;;;;;20.16;46.44;100217.32;109302;1254;59345;-73
2023/04/22 08:54:16;;;;;;;5.40;2.40;;;;;;;20.29;46.86;100216.77;109430;1256;58953;-73
2023/04/22 08:56:44;;;;;;;4.50;2.40;;;;;;;20.38;46.75;100215.33;109250;1253;72852;-73
2023/04/22 08:59:12;;;;;;;5.50;2.60;;;;;;;20.55;47.09;100217.84;109089;1254;69664;-74
2023/04/22 09:01:42;;;;;;;6.40;2.50;;;;;;;20.73;47.07;100215.10;109225;1252;72719;-73
2023/04/22 09:04:10;;;;;;;3.50;2.30;;;;;;;20.92;45.69;100213.77;109408;1253;59299;-73
2023/04/22 09:06:37;;;;;;;4.00;2.30;;;;;;;20.97;44.56;100211.71;109250;1254;59086;-73
2023/04/22 09:09:05;;;;;;;4.20;2.20;;;;;;;21.01;44.35;100211.67;109241;1253;73947;-73
2023/04/22 09:11:32;;;;;;;2.90;2.20;;;;;;;21.07;44.41;100204.25;109133;1253;70904;-73
2023/04/22 09:13:59;;;;;;;3.50;2.10;;;;;;;21.14;44.51;100199.92;109172;1254;70941;-74
2023/04/22 09:16:25;;;;;;;4.80;2.30;;;;;;;21.23;43.89;100197.63;109393;1254;59346;-73
2023/04/22 09:18:52;;;;;;;5.90;2.00;;;;;;;21.34;43.83;100192.75;109336;1254;59338;-73
2023/04/22 09:21:19;;;;;;;4.20;2.20;;;;;;;21.42;43.65;100190.45;109343;1253;73436;-74
2023/04/22 09:23:52;;;;;;;3.60;2.00;;;;;;;21.45;43.46;100188.76;109246;1254;69522;-74
2023/04/22 09:26:20;;;;;;;3.90;2.10;;;;;;;21.51;43.52;100192.09;109305;1253;72017;-73
2023/04/22 09:28:54;;;;;;;4.20;2.20;;;;;;;21.67;43.69;100194.73;109234;1254;60036;-73
2023/04/22 09:31:21;;;;;;;6.50;2.30;;;;;;;21.91;43.03;100189.51;109298;1252;60394;-74
2023/04/22 09:33:54;;;;;;;3.30;2.00;;;;;;;22.12;42.22;100187.71;109141;1254;73476;-73
2023/04/22 09:36:23;;;;;;;4.80;2.20;;;;;;;22.31;42.83;100186.41;109415;1254;69609;-74
2023/04/22 09:38:54;;;;;;;4.40;2.30;;;;;;;22.47;42.92;100182.78;109384;1253;71138;-74
2023/04/22 09:41:29;;;;;;;7.30;2.50;;;;;;;22.62;42.80;100179.30;109509;1252;58916;-74
2023/04/22 09:43:57;;;;;;;4.20;2.40;;;;;;;22.69;41.70;100175.25;109326;1254;61006;-74
2023/04/22 09:46:25;;;;;;;7.90;3.70;;;;;;;22.73;41.66;100176.52;109150;1254;74220;-74
2023/04/22 09:48:54;;;;;;;5.80;3.10;;;;;;;22.86;43.55;100174.31;109457;1253;69932;-74
2023/04/22 09:51:21;;;;;;;8.60;4.20;;;;;;;23.00;43.64;100170.38;109365;1254;71149;-74
2023/04/22 09:54:07;;;;;;;5.20;3.40;;;;;;;23.16;44.07;100167.58;109290;1253;60772;-74
2023/04/22 09:56:50;;;;;;;5.30;3.10;;;;;;;23.33;44.32;100164.70;109283;1253;60046;-75
2023/04/22 09:59:22;;;;;;;4.80;3.40;;;;;;;23.42;43.79;100165.44;109456;1253;73284;-74
2023/04/22 10:01:51;;;;;;;6.60;3.80;;;;;;;23.52;43.66;100159.13;109400;1252;70143;-73
2023/04/22 10:04:23;;;;;;;5.40;3.10;;;;;;;23.53;43.03;100154.64;109455;1252;72524;-73
2023/04/22 10:06:53;;;;;;;7.40;3.80;;;;;;;23.46;43.58;100148.16;109233;1254;59171;-73
2023/04/22 10:09:22;;;;;;;6.70;3.20;;;;;;;23.42;42.86;100143.94;109414;1253;58964;-74
2023/04/22 10:11:51;;;;;;;4.40;3.10;;;;;;;23.48;43.30;100146.84;109151;1254;74642;-73
2023/04/22 10:14:18;;;;;;;4.70;2.90;;;;;;;23.60;43.54;100145.41;109384;1254;71298;-74
2023/04/22 10:16:46;;;;;;;5.00;2.70;;;;;;;23.57;43.12;100146.95;109308;1253;71324;-74
2023/04/22 10:19:18;;;;;;;4.40;3.00;;;;;;;23.44;42.47;100142.31;109426;1252;59377;-74
2023/04/22 10:21:46;;;;;;;7.10;3.30;;;;;;;23.31;42.36;100138.98;109289;1254;59356;-74
2023/04/22 10:24:17;;;;;;;7.30;3.30;;;;;;;23.39;42.84;100137.56;109269;1254;74863;-75
2023/04/22 10:26:54;;;;;;;6.80;3.20;;;;;;;23.52;42.40;100140.35;109300;1255;69725;-74
2023/04/22 10:29:24;;;;;;;5.50;3.10;;;;;;;23.63;42.26;100135.44;109459;1253;72364;-74
2023/04/22 10:32:04;;;;;;;6.20;2.90;;;;;;;23.78;43.18;100129.36;109440;1253;60074;-74
2023/04/22 10:34:31;;;;;;;6.00;2.70;;;;;;;23.98;42.23;100127.81;109262;1254;61283;-74
2023/04/22 10:37:10;;;;;;;6.20;2.80;;;;;;;24.17;41.15;100127.88;109321;1252;75208;-74
2023/04/22 10:39:39;;;;;;;4.20;2.70;;;;;;;24.28;40.52;100127.60;109258;1253;71184;-73
2023/04/22 10:42:09;;;;;;;6.40;2.70;;;;;;;24.33;40.74;100128.66;109379;1254;72545;-74
2023/04/22 10:44:47;;;;;;;4.20;2.60;;;;;;;24.39;39.99;100130.88;109409;1254;59138;-73
2023/04/22 10:47:46;;;;;;;5.40;3.00;;;;;;;24.53;39.29;100124.81;109476;1254;59290;-74
2023/04/22 10:50:32;;;;;;;4.30;2.30;;;;;;;24.68;39.96;100127.69;109201;1253;74075;-74
2023/04/22 10:53:19;;;;;;;5.80;2.60;;;;;;;24.74;38.33;100122.11;109405;1254;70995;-74
2023/04/22 10:55:50;;;;;;;6.20;3.10;;;;;;;24.89;39.73;100121.55;109327;1254;72698;-74
2023/04/22 10:58:19;;;;;;;4.80;3.10;;;;;;;25.08;40.13;100119.81;109253;1254;61333;-75
2023/04/22 11:00:46;;;;;;;7.30;3.40;;;;;;;25.31;40.29;100117.55;109393;1254;60017;-74
2023/04/22 11:03:23;;;;;;;7.50;3.00;;;;;;;25.52;39.20;100116.02;109438;1252;75861;-74
2023/04/22 11:06:14;;;;;;;5.50;3.30;;;;;;;25.63;38.68;100113.44;109321;1254;70328;-73
2023/04/22 11:08:46;;;;;;;4.40;2.80;;;;;;;25.80;38.76;100112.15;109283;1254;71512;-73
2023/04/22 11:11:16;;;;;;;5.40;3.20;;;;;;;25.73;38.22;100108.98;109177;1253;61442;-74
2023/04/22 11:13:43;;;;;;;5.30;3.30;;;;;;;25.81;38.95;100102.42;109463;1253;60534;-74
2023/04/22 11:16:09;;;;;;;4.80;3.20;;;;;;;25.91;38.44;100099.53;109414;1253;74447;-74